createdAt,value
2017-03-02T00:00:30.407Z,996.16
2017-03-02T00:01:11.015Z,996.16
2017-03-02T00:01:51.594Z,996.11
2017-03-02T00:02:32.197Z,996.13
2017-03-02T00:03:12.803Z,996.09
2017-03-02T00:03:53.420Z,996.09
2017-03-02T00:04:33.991Z,996.07
2017-03-02T00:05:14.563Z,996.09
2017-03-02T00:05:55.185Z,996.09
2017-03-02T00:06:35.742Z,996.04
2017-03-02T00:07:16.326Z,996.04
2017-03-02T00:07:56.971Z,996.01
2017-03-02T00:08:37.557Z,996.01
2017-03-02T00:09:18.136Z,996
2017-03-02T00:09:58.698Z,996.04
2017-03-02T00:10:39.269Z,996.08
2017-03-02T00:11:19.836Z,996.09
2017-03-02T00:12:00.417Z,996.1
2017-03-02T00:12:40.995Z,996.08
2017-03-02T00:13:21.573Z,996.12
2017-03-02T00:14:02.169Z,996.15
2017-03-02T00:14:42.746Z,996.07
2017-03-02T00:15:23.329Z,996.05
2017-03-02T00:16:03.898Z,996.03
2017-03-02T00:16:44.483Z,995.98
2017-03-02T00:17:25.070Z,996.02
2017-03-02T00:18:05.655Z,995.97
2017-03-02T00:18:46.251Z,996
2017-03-02T00:19:26.846Z,995.97
2017-03-02T00:20:07.415Z,995.91
2017-03-02T00:20:48.013Z,995.92
2017-03-02T00:21:28.620Z,995.92
2017-03-02T00:22:09.184Z,995.96
2017-03-02T00:22:49.758Z,995.93
2017-03-02T00:23:30.341Z,995.91
2017-03-02T00:24:10.928Z,995.92
2017-03-02T00:24:51.547Z,995.92
2017-03-02T00:25:32.126Z,995.88
2017-03-02T00:26:12.740Z,995.89
2017-03-02T00:26:53.333Z,995.97
2017-03-02T00:27:33.903Z,995.93
2017-03-02T00:28:14.879Z,995.9
2017-03-02T00:28:55.461Z,995.92
2017-03-02T00:29:36.044Z,995.88
2017-03-02T00:30:16.627Z,995.9
2017-03-02T00:30:57.202Z,995.85
2017-03-02T00:31:37.780Z,995.83
2017-03-02T00:32:18.361Z,995.82
2017-03-02T00:32:58.936Z,995.85
2017-03-02T00:33:39.503Z,995.83
2017-03-02T00:34:20.103Z,995.81
2017-03-02T00:35:00.705Z,995.74
2017-03-02T00:35:41.276Z,995.79
2017-03-02T00:36:21.856Z,995.73
2017-03-02T00:37:02.426Z,995.75
2017-03-02T00:37:43.020Z,995.72
2017-03-02T00:38:23.595Z,995.75
2017-03-02T00:39:04.161Z,995.69
2017-03-02T00:39:44.756Z,995.66
2017-03-02T00:40:25.403Z,995.6
2017-03-02T00:41:05.993Z,995.59
2017-03-02T00:41:46.560Z,995.57
2017-03-02T00:42:27.158Z,995.55
2017-03-02T00:43:07.752Z,995.55
2017-03-02T00:43:48.331Z,995.56
2017-03-02T00:44:28.922Z,995.55
2017-03-02T00:45:09.533Z,995.54
2017-03-02T00:45:50.119Z,995.52
2017-03-02T00:46:30.736Z,995.49
2017-03-02T00:47:11.326Z,995.48
2017-03-02T00:47:51.896Z,995.57
2017-03-02T00:48:32.480Z,995.54
2017-03-02T00:49:13.062Z,995.57
2017-03-02T00:49:53.634Z,995.54
2017-03-02T00:50:34.206Z,995.51
2017-03-02T00:51:14.776Z,995.53
2017-03-02T00:51:55.359Z,995.51
2017-03-02T00:52:35.961Z,995.5
2017-03-02T00:53:16.553Z,995.51
2017-03-02T00:53:57.099Z,995.48
2017-03-02T00:54:37.680Z,995.49
2017-03-02T00:55:18.260Z,995.47
2017-03-02T00:55:58.853Z,995.47
2017-03-02T00:56:39.433Z,995.47
2017-03-02T00:57:20.016Z,995.46
2017-03-02T00:58:00.604Z,995.47
2017-03-02T00:58:41.179Z,995.43
2017-03-02T00:59:21.760Z,995.45
2017-03-02T01:00:02.326Z,995.38
2017-03-02T01:00:42.914Z,995.39
2017-03-02T01:01:23.483Z,995.33
2017-03-02T01:02:04.054Z,995.31
2017-03-02T01:02:44.625Z,995.34
2017-03-02T01:03:25.204Z,995.33
2017-03-02T01:04:05.765Z,995.31
2017-03-02T01:04:46.345Z,995.29
2017-03-02T01:05:26.911Z,995.28
2017-03-02T01:06:07.478Z,995.23
2017-03-02T01:06:48.066Z,995.24
2017-03-02T01:07:28.697Z,995.26
2017-03-02T01:08:09.272Z,995.22
2017-03-02T01:08:49.852Z,995.2
2017-03-02T01:09:30.434Z,995.19
2017-03-02T01:10:10.997Z,995.22
2017-03-02T01:10:54.138Z,995.18
2017-03-02T01:11:34.728Z,995.2
2017-03-02T01:12:15.303Z,995.15
2017-03-02T01:12:55.862Z,995.1
2017-03-02T01:13:36.433Z,995.11
2017-03-02T01:14:17.020Z,995.1
2017-03-02T01:14:57.588Z,995.07
2017-03-02T01:15:38.162Z,995.13
2017-03-02T01:16:18.738Z,995.11
2017-03-02T01:16:59.323Z,995.09
2017-03-02T01:17:39.964Z,995.03
2017-03-02T01:18:20.558Z,995.03
2017-03-02T01:19:01.135Z,995.02
2017-03-02T01:19:41.716Z,995.03
2017-03-02T01:20:22.299Z,995.01
2017-03-02T01:21:02.860Z,995.01
2017-03-02T01:21:43.437Z,995.01
2017-03-02T01:22:24.029Z,994.99
2017-03-02T01:23:04.619Z,994.99
2017-03-02T01:23:45.219Z,994.99
2017-03-02T01:24:25.800Z,994.97
2017-03-02T01:25:06.389Z,994.96
2017-03-02T01:25:46.962Z,994.95
2017-03-02T01:26:27.541Z,994.91
2017-03-02T01:27:08.108Z,994.91
2017-03-02T01:27:48.675Z,994.92
2017-03-02T01:28:29.242Z,994.9
2017-03-02T01:29:09.809Z,994.88
2017-03-02T01:29:50.398Z,994.86
2017-03-02T01:30:31.005Z,994.85
2017-03-02T01:31:11.573Z,994.8
2017-03-02T01:31:52.146Z,994.83
2017-03-02T01:32:32.725Z,994.79
2017-03-02T01:33:13.344Z,994.77
2017-03-02T01:33:53.938Z,994.8
2017-03-02T01:34:34.507Z,994.8
2017-03-02T01:35:15.082Z,994.82
2017-03-02T01:35:55.663Z,994.81
2017-03-02T01:36:36.237Z,994.8
2017-03-02T01:37:16.820Z,994.79
2017-03-02T01:37:57.411Z,994.79
2017-03-02T01:38:37.991Z,994.8
2017-03-02T01:39:18.584Z,994.79
2017-03-02T01:39:59.141Z,994.76
2017-03-02T01:40:39.735Z,994.71
2017-03-02T01:41:20.297Z,994.69
2017-03-02T01:42:00.892Z,994.66
2017-03-02T01:42:41.442Z,994.66
2017-03-02T01:43:22.022Z,994.64
2017-03-02T01:44:02.607Z,994.64
2017-03-02T01:44:43.185Z,994.58
2017-03-02T01:45:23.764Z,994.57
2017-03-02T01:46:04.354Z,994.57
2017-03-02T01:46:44.937Z,994.52
2017-03-02T01:47:25.506Z,994.53
2017-03-02T01:48:06.110Z,994.5
2017-03-02T01:48:46.693Z,994.51
2017-03-02T01:49:27.269Z,994.47
2017-03-02T01:50:07.835Z,994.48
2017-03-02T01:50:48.427Z,994.52
2017-03-02T01:51:29.005Z,994.45
2017-03-02T01:52:09.578Z,994.42
2017-03-02T01:52:50.151Z,994.46
2017-03-02T01:53:30.757Z,994.47
2017-03-02T01:54:11.342Z,994.42
2017-03-02T01:54:51.917Z,994.45
2017-03-02T01:55:32.528Z,994.47
2017-03-02T01:56:13.105Z,994.42
2017-03-02T01:56:53.686Z,994.38
2017-03-02T01:57:34.268Z,994.35
2017-03-02T01:58:14.848Z,994.37
2017-03-02T01:58:55.433Z,994.4
2017-03-02T01:59:36.000Z,994.35
2017-03-02T02:00:16.583Z,994.36
2017-03-02T02:00:57.192Z,994.3
2017-03-02T02:01:37.762Z,994.3
2017-03-02T02:02:18.369Z,994.33
2017-03-02T02:02:58.957Z,994.31
2017-03-02T02:03:39.549Z,994.33
2017-03-02T02:04:20.143Z,994.3
2017-03-02T02:05:00.747Z,994.3
2017-03-02T02:05:41.317Z,994.34
2017-03-02T02:06:21.891Z,994.32
2017-03-02T02:07:02.476Z,994.35
2017-03-02T02:07:43.082Z,994.34
2017-03-02T02:08:23.655Z,994.31
2017-03-02T02:09:04.228Z,994.26
2017-03-02T02:09:44.836Z,994.34
2017-03-02T02:10:25.422Z,994.34
2017-03-02T02:11:06.012Z,994.31
2017-03-02T02:11:46.615Z,994.31
2017-03-02T02:12:27.195Z,994.24
2017-03-02T02:13:07.775Z,994.28
2017-03-02T02:13:48.362Z,994.31
2017-03-02T02:14:28.949Z,994.24
2017-03-02T02:15:09.539Z,994.21
2017-03-02T02:15:50.111Z,994.24
2017-03-02T02:16:30.698Z,994.19
2017-03-02T02:17:11.290Z,994.18
2017-03-02T02:17:51.884Z,994.2
2017-03-02T02:18:32.480Z,994.2
2017-03-02T02:19:13.099Z,994.17
2017-03-02T02:19:53.681Z,994.18
2017-03-02T02:20:34.266Z,994.15
2017-03-02T02:21:14.853Z,994.13
2017-03-02T02:21:55.449Z,994.08
2017-03-02T02:22:36.031Z,994.11
2017-03-02T02:23:16.603Z,994.07
2017-03-02T02:23:57.215Z,994.06
2017-03-02T02:24:37.815Z,994.05
2017-03-02T02:25:18.424Z,994.07
2017-03-02T02:25:59.008Z,994.03
2017-03-02T02:26:39.566Z,994
2017-03-02T02:27:20.127Z,993.99
2017-03-02T02:28:00.711Z,994
2017-03-02T02:28:41.309Z,993.98
2017-03-02T02:29:21.888Z,993.94
2017-03-02T02:30:02.471Z,993.98
2017-03-02T02:30:43.061Z,993.96
2017-03-02T02:31:23.665Z,993.98
2017-03-02T02:32:04.239Z,993.97
2017-03-02T02:32:44.825Z,993.94
2017-03-02T02:33:25.427Z,993.9
2017-03-02T02:34:05.990Z,993.91
2017-03-02T02:34:46.575Z,993.88
2017-03-02T02:35:27.167Z,993.84
2017-03-02T02:36:07.783Z,993.79
2017-03-02T02:36:48.359Z,993.8
2017-03-02T02:37:28.940Z,993.77
2017-03-02T02:38:09.527Z,993.77
2017-03-02T02:38:50.097Z,993.71
2017-03-02T02:39:30.702Z,993.75
2017-03-02T02:40:11.248Z,993.72
2017-03-02T02:40:51.807Z,993.7
2017-03-02T02:41:32.436Z,993.71
2017-03-02T02:42:13.010Z,993.69
2017-03-02T02:42:53.607Z,993.7
2017-03-02T02:43:34.179Z,993.72
2017-03-02T02:44:14.760Z,993.67
2017-03-02T02:44:55.351Z,993.7
2017-03-02T02:45:35.910Z,993.7
2017-03-02T02:46:16.481Z,993.69
2017-03-02T02:46:57.056Z,993.63
2017-03-02T02:47:37.647Z,993.63
2017-03-02T02:48:18.245Z,993.61
2017-03-02T02:48:58.822Z,993.66
2017-03-02T02:49:39.404Z,993.63
2017-03-02T02:50:20.001Z,993.59
2017-03-02T02:51:00.585Z,993.61
2017-03-02T02:51:41.164Z,993.59
2017-03-02T02:52:21.759Z,993.61
2017-03-02T02:53:02.348Z,993.58
2017-03-02T02:53:42.925Z,993.63
2017-03-02T02:54:23.506Z,993.63
2017-03-02T02:55:04.099Z,993.57
2017-03-02T02:55:44.664Z,993.61
2017-03-02T02:56:25.267Z,993.61
2017-03-02T02:57:05.837Z,993.61
2017-03-02T02:57:46.418Z,993.6
2017-03-02T02:58:26.990Z,993.59
2017-03-02T02:59:07.553Z,993.56
2017-03-02T02:59:48.138Z,993.55
2017-03-02T03:00:28.710Z,993.53
2017-03-02T03:01:09.307Z,993.53
2017-03-02T03:01:49.880Z,993.5
2017-03-02T03:02:30.477Z,993.49
2017-03-02T03:03:11.048Z,993.47
2017-03-02T03:03:51.636Z,993.46
2017-03-02T03:04:32.213Z,993.45
2017-03-02T03:05:12.816Z,993.41
2017-03-02T03:05:53.397Z,993.35
2017-03-02T03:06:33.980Z,993.33
2017-03-02T03:07:14.577Z,993.34
2017-03-02T03:07:55.167Z,993.36
2017-03-02T03:08:35.758Z,993.33
2017-03-02T03:09:16.338Z,993.34
2017-03-02T03:09:56.972Z,993.34
2017-03-02T03:10:37.529Z,993.3
2017-03-02T03:11:18.115Z,993.32
2017-03-02T03:11:58.724Z,993.27
2017-03-02T03:12:39.377Z,993.23
2017-03-02T03:13:19.994Z,993.2
2017-03-02T03:14:00.568Z,993.18
2017-03-02T03:14:41.145Z,993.14
2017-03-02T03:15:21.720Z,993.08
2017-03-02T03:16:02.321Z,993.01
2017-03-02T03:16:42.899Z,993.02
2017-03-02T03:17:23.481Z,992.95
2017-03-02T03:18:04.054Z,992.98
2017-03-02T03:18:44.637Z,992.93
2017-03-02T03:19:25.208Z,992.91
2017-03-02T03:20:05.782Z,992.93
2017-03-02T03:20:46.381Z,992.94
2017-03-02T03:21:26.946Z,992.94
2017-03-02T03:22:07.519Z,992.95
2017-03-02T03:22:48.095Z,992.94
2017-03-02T03:23:28.672Z,992.9
2017-03-02T03:24:09.261Z,992.93
2017-03-02T03:24:49.834Z,992.93
2017-03-02T03:25:30.432Z,992.88
2017-03-02T03:26:11.012Z,992.91
2017-03-02T03:26:51.589Z,992.88
2017-03-02T03:27:32.175Z,992.86
2017-03-02T03:28:12.762Z,992.86
2017-03-02T03:28:53.343Z,992.85
2017-03-02T03:29:33.919Z,992.85
2017-03-02T03:30:14.498Z,992.86
2017-03-02T03:30:55.093Z,992.8
2017-03-02T03:31:35.674Z,992.79
2017-03-02T03:32:16.250Z,992.75
2017-03-02T03:32:56.816Z,992.84
2017-03-02T03:33:37.403Z,992.78
2017-03-02T03:34:17.973Z,992.8
2017-03-02T03:34:58.573Z,992.74
2017-03-02T03:35:39.154Z,992.74
2017-03-02T03:36:19.743Z,992.71
2017-03-02T03:37:00.329Z,992.69
2017-03-02T03:37:40.933Z,992.68
2017-03-02T03:38:21.539Z,992.68
2017-03-02T03:39:02.143Z,992.65
2017-03-02T03:39:42.735Z,992.69
2017-03-02T03:40:23.345Z,992.65
2017-03-02T03:41:03.916Z,992.64
2017-03-02T03:41:44.481Z,992.62
2017-03-02T03:42:25.049Z,992.62
2017-03-02T03:43:05.621Z,992.62
2017-03-02T03:43:46.199Z,992.58
2017-03-02T03:44:26.786Z,992.58
2017-03-02T03:45:07.383Z,992.59
2017-03-02T03:45:47.956Z,992.6
2017-03-02T03:46:28.545Z,992.57
2017-03-02T03:47:09.130Z,992.52
2017-03-02T03:47:49.715Z,992.53
2017-03-02T03:48:30.299Z,992.52
2017-03-02T03:49:10.902Z,992.54
2017-03-02T03:49:51.484Z,992.52
2017-03-02T03:50:32.076Z,992.48
2017-03-02T03:51:12.733Z,992.46
2017-03-02T03:51:53.337Z,992.46
2017-03-02T03:52:33.922Z,992.43
2017-03-02T03:53:14.492Z,992.43
2017-03-02T03:53:55.072Z,992.43
2017-03-02T03:54:35.702Z,992.38
2017-03-02T03:55:16.315Z,992.33
2017-03-02T03:55:56.895Z,992.32
2017-03-02T03:56:37.486Z,992.3
2017-03-02T03:57:18.052Z,992.27
2017-03-02T03:57:58.639Z,992.24
2017-03-02T03:58:39.230Z,992.22
2017-03-02T03:59:19.798Z,992.19
2017-03-02T04:00:00.371Z,992.15
2017-03-02T04:00:40.934Z,992.15
2017-03-02T04:01:21.536Z,992.12
2017-03-02T04:02:02.087Z,992.16
2017-03-02T04:02:42.682Z,992.12
2017-03-02T04:03:23.291Z,992.17
2017-03-02T04:04:03.877Z,992.11
2017-03-02T04:04:44.455Z,992.12
2017-03-02T04:05:25.026Z,992.13
2017-03-02T04:06:05.603Z,992.12
2017-03-02T04:06:46.200Z,992.03
2017-03-02T04:07:26.770Z,992.06
2017-03-02T04:08:07.351Z,992.01
2017-03-02T04:08:47.931Z,992.05
2017-03-02T04:09:28.549Z,992.05
2017-03-02T04:10:09.246Z,992.04
2017-03-02T04:10:49.855Z,991.98
2017-03-02T04:11:30.439Z,992.03
2017-03-02T04:12:11.019Z,992.04
2017-03-02T04:12:51.583Z,991.93
2017-03-02T04:13:32.167Z,991.95
2017-03-02T04:14:12.771Z,991.96
2017-03-02T04:14:53.327Z,991.97
2017-03-02T04:15:33.907Z,991.97
2017-03-02T04:16:14.517Z,991.94
2017-03-02T04:16:55.097Z,991.98
2017-03-02T04:17:35.703Z,991.98
2017-03-02T04:18:16.280Z,991.92
2017-03-02T04:18:56.880Z,991.91
2017-03-02T04:19:37.476Z,991.93
2017-03-02T04:20:18.079Z,991.94
2017-03-02T04:20:58.723Z,991.93
2017-03-02T04:21:39.283Z,991.98
2017-03-02T04:22:19.878Z,991.96
2017-03-02T04:23:00.455Z,991.87
2017-03-02T04:23:41.033Z,991.89
2017-03-02T04:24:21.622Z,991.85
2017-03-02T04:25:02.258Z,991.87
2017-03-02T04:25:42.857Z,991.83
2017-03-02T04:26:23.415Z,991.85
2017-03-02T04:27:04.007Z,991.78
2017-03-02T04:27:44.587Z,991.79
2017-03-02T04:28:25.176Z,991.79
2017-03-02T04:29:05.743Z,991.84
2017-03-02T04:29:46.307Z,991.77
2017-03-02T04:30:26.897Z,991.81
2017-03-02T04:31:07.477Z,991.79
2017-03-02T04:31:48.052Z,991.79
2017-03-02T04:32:28.656Z,991.8
2017-03-02T04:33:09.245Z,991.71
2017-03-02T04:33:49.826Z,991.7
2017-03-02T04:34:30.406Z,991.67
2017-03-02T04:35:10.971Z,991.76
2017-03-02T04:35:51.548Z,991.69
2017-03-02T04:36:32.128Z,991.64
2017-03-02T04:37:12.707Z,991.66
2017-03-02T04:37:53.275Z,991.69
2017-03-02T04:38:33.870Z,991.62
2017-03-02T04:39:14.469Z,991.66
2017-03-02T04:39:55.052Z,991.61
2017-03-02T04:40:35.786Z,991.58
2017-03-02T04:41:16.368Z,991.57
2017-03-02T04:41:56.977Z,991.59
2017-03-02T04:42:37.585Z,991.65
2017-03-02T04:43:18.167Z,991.6
2017-03-02T04:43:58.749Z,991.62
2017-03-02T04:44:39.326Z,991.61
2017-03-02T04:45:19.887Z,991.59
2017-03-02T04:46:00.504Z,991.57
2017-03-02T04:46:41.075Z,991.58
2017-03-02T04:47:21.655Z,991.51
2017-03-02T04:48:02.235Z,991.52
2017-03-02T04:48:42.849Z,991.5
2017-03-02T04:49:23.444Z,991.5
2017-03-02T04:50:04.020Z,991.51
2017-03-02T04:50:44.602Z,991.5
2017-03-02T04:51:25.187Z,991.47
2017-03-02T04:52:05.760Z,991.48
2017-03-02T04:52:46.332Z,991.51
2017-03-02T04:53:26.915Z,991.51
2017-03-02T04:54:07.540Z,991.46
2017-03-02T04:54:49.035Z,991.45
2017-03-02T04:57:17.372Z,991.48
2017-03-02T04:57:57.967Z,991.48
2017-03-02T04:58:38.566Z,991.47
2017-03-02T04:59:19.147Z,991.46
2017-03-02T04:59:59.730Z,991.48
2017-03-02T05:00:40.318Z,991.46
2017-03-02T05:01:20.905Z,991.44
2017-03-02T05:02:01.501Z,991.4
2017-03-02T05:02:42.084Z,991.48
2017-03-02T05:03:22.713Z,991.44
2017-03-02T05:04:03.294Z,991.39
2017-03-02T05:04:43.878Z,991.41
2017-03-02T05:05:24.482Z,991.39
2017-03-02T05:06:05.079Z,991.41
2017-03-02T05:06:45.679Z,991.38
2017-03-02T05:07:26.274Z,991.39
2017-03-02T05:08:06.884Z,991.4
2017-03-02T05:08:47.498Z,991.34
2017-03-02T05:09:28.085Z,991.33
2017-03-02T05:10:08.658Z,991.37
2017-03-02T05:10:49.263Z,991.41
2017-03-02T05:11:29.838Z,991.38
2017-03-02T05:12:10.510Z,991.41
2017-03-02T05:12:51.114Z,991.36
2017-03-02T05:13:31.716Z,991.33
2017-03-02T05:14:12.316Z,991.38
2017-03-02T05:14:52.934Z,991.37
2017-03-02T05:15:33.523Z,991.38
2017-03-02T05:16:14.108Z,991.38
2017-03-02T05:18:20.023Z,991.27
2017-03-02T05:19:00.632Z,991.3
2017-03-02T05:19:41.232Z,991.24
2017-03-02T05:20:21.812Z,991.25
2017-03-02T05:21:02.408Z,991.26
2017-03-02T05:21:42.982Z,991.25
2017-03-02T05:22:23.577Z,991.23
2017-03-02T05:23:04.168Z,991.25
2017-03-02T05:23:44.788Z,991.19
2017-03-02T05:24:25.426Z,991.18
2017-03-02T05:25:05.993Z,991.23
2017-03-02T05:25:46.823Z,991.18
2017-03-02T05:26:27.447Z,991.22
2017-03-02T05:27:08.099Z,991.15
2017-03-02T05:27:48.697Z,991.17
2017-03-02T05:28:29.309Z,991.15
2017-03-02T05:29:09.897Z,991.13
2017-03-02T05:29:50.527Z,991.16
2017-03-02T05:30:31.100Z,991.11
2017-03-02T05:31:11.682Z,991.13
2017-03-02T05:31:52.272Z,991.14
2017-03-02T05:32:32.874Z,991.11
2017-03-02T05:33:13.475Z,991.11
2017-03-02T05:33:54.079Z,991.11
2017-03-02T05:34:34.659Z,991.11
2017-03-02T05:35:15.274Z,991.08
2017-03-02T05:35:55.881Z,991.03
2017-03-02T05:36:36.527Z,990.99
2017-03-02T05:37:17.130Z,990.97
2017-03-02T05:37:57.780Z,990.99
2017-03-02T05:38:38.375Z,990.95
2017-03-02T05:39:18.990Z,990.94
2017-03-02T05:39:59.596Z,990.9
2017-03-02T05:40:40.898Z,990.91
2017-03-02T05:41:21.498Z,990.88
2017-03-02T05:42:02.086Z,990.92
2017-03-02T05:42:42.673Z,990.96
2017-03-02T05:43:23.287Z,990.95
2017-03-02T05:44:03.928Z,990.95
2017-03-02T05:44:44.597Z,990.92
2017-03-02T05:45:25.186Z,990.95
2017-03-02T05:46:05.817Z,990.94
2017-03-02T05:46:46.398Z,990.96
2017-03-02T05:47:26.984Z,990.92
2017-03-02T05:48:07.611Z,990.92
2017-03-02T05:48:48.186Z,990.96
2017-03-02T05:49:28.858Z,990.95
2017-03-02T05:50:09.458Z,990.89
2017-03-02T05:50:50.138Z,990.88
2017-03-02T05:51:30.723Z,990.84
2017-03-02T05:52:11.367Z,990.82
2017-03-02T05:52:51.949Z,990.83
2017-03-02T05:53:32.548Z,990.81
2017-03-02T05:54:13.218Z,990.8
2017-03-02T05:54:53.753Z,990.77
2017-03-02T05:55:34.352Z,990.86
2017-03-02T05:56:14.955Z,990.83
2017-03-02T05:56:55.531Z,990.9
2017-03-02T05:57:36.219Z,990.95
2017-03-02T05:58:16.836Z,990.97
2017-03-02T05:58:57.443Z,990.96
2017-03-02T05:59:38.063Z,990.98
2017-03-02T06:00:18.691Z,990.94
2017-03-02T06:00:59.306Z,990.91
2017-03-02T06:01:39.884Z,990.88
2017-03-02T06:02:20.505Z,990.82
2017-03-02T06:03:01.087Z,990.81
2017-03-02T06:03:41.665Z,990.86
2017-03-02T06:04:22.283Z,990.87
2017-03-02T06:05:02.973Z,990.94
2017-03-02T06:05:43.666Z,990.89
2017-03-02T06:06:24.365Z,990.96
2017-03-02T06:07:05.033Z,991
2017-03-02T06:07:45.677Z,990.94
2017-03-02T06:08:26.303Z,990.93
2017-03-02T06:09:07.027Z,990.9
2017-03-02T06:09:47.638Z,990.92
2017-03-02T06:10:28.247Z,990.95
2017-03-02T06:11:08.874Z,990.91
2017-03-02T06:11:49.495Z,990.95
2017-03-02T06:12:30.106Z,990.91
2017-03-02T06:13:10.696Z,991
2017-03-02T06:13:51.280Z,990.95
2017-03-02T06:14:31.859Z,990.96
2017-03-02T06:15:12.449Z,990.97
2017-03-02T06:15:53.048Z,990.95
2017-03-02T06:16:33.650Z,990.95
2017-03-02T06:17:14.247Z,990.9
2017-03-02T06:17:54.863Z,990.97
2017-03-02T06:18:35.467Z,990.99
2017-03-02T06:19:16.125Z,990.96
2017-03-02T06:19:56.718Z,991.01
2017-03-02T06:20:37.337Z,991.04
2017-03-02T06:21:17.925Z,991
2017-03-02T06:21:58.543Z,990.99
2017-03-02T06:22:39.128Z,991.02
2017-03-02T06:23:19.776Z,990.98
2017-03-02T06:24:00.353Z,990.98
2017-03-02T06:24:40.951Z,990.98
2017-03-02T06:25:21.550Z,990.96
2017-03-02T06:26:02.139Z,990.97
2017-03-02T06:26:42.798Z,991.02
2017-03-02T06:27:23.381Z,991.05
2017-03-02T06:28:03.951Z,991.03
2017-03-02T06:28:44.588Z,991.05
2017-03-02T06:29:25.233Z,991.02
2017-03-02T06:30:05.963Z,991.09
2017-03-02T06:30:46.553Z,990.99
2017-03-02T06:31:27.176Z,991.03
2017-03-02T06:32:07.977Z,991.04
2017-03-02T06:32:48.519Z,991.05
2017-03-02T06:33:29.109Z,991.04
2017-03-02T06:34:09.696Z,991.01
2017-03-02T06:34:50.307Z,991.04
2017-03-02T06:35:30.925Z,991.04
2017-03-02T06:36:11.548Z,990.99
2017-03-02T06:36:52.164Z,991.04
2017-03-02T06:37:32.878Z,990.99
2017-03-02T06:38:13.416Z,991.02
2017-03-02T06:38:54.040Z,990.98
2017-03-02T06:39:34.612Z,990.97
2017-03-02T06:40:15.191Z,990.96
2017-03-02T06:40:55.777Z,990.9
2017-03-02T06:41:36.370Z,990.92
2017-03-02T06:42:17.035Z,990.93
2017-03-02T06:42:57.642Z,990.94
2017-03-02T06:43:38.234Z,990.95
2017-03-02T06:44:18.811Z,991.01
2017-03-02T06:44:59.390Z,991.01
2017-03-02T06:45:40.054Z,990.97
2017-03-02T06:46:20.646Z,991.01
2017-03-02T06:47:01.248Z,990.99
2017-03-02T06:47:41.882Z,991.11
2017-03-02T06:48:22.562Z,991.13
2017-03-02T06:49:03.136Z,991.17
2017-03-02T06:49:43.785Z,991.19
2017-03-02T06:50:24.507Z,991.16
2017-03-02T06:51:05.118Z,991.11
2017-03-02T06:51:45.862Z,991.22
2017-03-02T06:52:26.452Z,991.15
2017-03-02T06:53:07.063Z,991.18
2017-03-02T06:53:47.676Z,991.19
2017-03-02T06:54:30.134Z,991.23
2017-03-02T06:55:11.644Z,991.23
2017-03-02T06:55:52.287Z,991.23
2017-03-02T06:56:32.911Z,991.27
2017-03-02T06:57:13.539Z,991.23
2017-03-02T06:57:54.121Z,991.25
2017-03-02T06:58:34.811Z,991.32
2017-03-02T06:59:15.587Z,991.26
2017-03-02T06:59:56.214Z,991.3
2017-03-02T07:00:36.830Z,991.33
2017-03-02T07:01:17.432Z,991.37
2017-03-02T07:01:58.111Z,991.4
2017-03-02T07:02:38.702Z,991.38
2017-03-02T07:03:19.378Z,991.42
2017-03-02T07:04:00.054Z,991.41
2017-03-02T07:04:40.691Z,991.35
2017-03-02T07:05:24.136Z,991.37
2017-03-02T07:06:04.877Z,991.34
2017-03-02T07:06:45.405Z,991.37
2017-03-02T07:07:26.024Z,991.38
2017-03-02T07:08:06.631Z,991.38
2017-03-02T07:08:54.131Z,991.37
2017-03-02T07:09:34.741Z,991.39
2017-03-02T07:10:15.306Z,991.38
2017-03-02T07:10:55.994Z,991.43
2017-03-02T07:11:36.604Z,991.43
2017-03-02T07:12:17.173Z,991.42
2017-03-02T07:12:57.813Z,991.43
2017-03-02T07:13:38.440Z,991.39
2017-03-02T07:14:19.065Z,991.41
2017-03-02T07:14:59.710Z,991.36
2017-03-02T07:15:40.314Z,991.35
2017-03-02T07:16:20.928Z,991.38
2017-03-02T07:17:01.551Z,991.43
2017-03-02T07:17:42.142Z,991.41
2017-03-02T07:18:22.760Z,991.4
2017-03-02T07:19:03.346Z,991.38
2017-03-02T07:19:44.069Z,991.42
2017-03-02T07:20:24.649Z,991.4
2017-03-02T07:21:05.347Z,991.42
2017-03-02T07:21:45.956Z,991.39
2017-03-02T07:22:26.557Z,991.38
2017-03-02T07:23:07.152Z,991.4
2017-03-02T07:23:47.770Z,991.4
2017-03-02T07:24:28.420Z,991.39
2017-03-02T07:25:09.085Z,991.43
2017-03-02T07:25:49.639Z,991.41
2017-03-02T07:26:30.235Z,991.47
2017-03-02T07:27:10.849Z,991.4
2017-03-02T07:27:51.591Z,991.47
2017-03-02T07:28:32.330Z,991.41
2017-03-02T07:29:12.920Z,991.46
2017-03-02T07:29:53.585Z,991.49
2017-03-02T07:30:34.192Z,991.48
2017-03-02T07:31:14.795Z,991.5
2017-03-02T07:31:55.397Z,991.49
2017-03-02T07:32:35.998Z,991.5
2017-03-02T07:33:16.598Z,991.51
2017-03-02T07:33:57.192Z,991.57
2017-03-02T07:34:37.795Z,991.55
2017-03-02T07:35:18.368Z,991.57
2017-03-02T07:35:58.965Z,991.5
2017-03-02T07:36:39.563Z,991.51
2017-03-02T07:37:20.216Z,991.54
2017-03-02T07:38:00.801Z,991.51
2017-03-02T07:38:41.404Z,991.55
2017-03-02T07:39:22.023Z,991.53
2017-03-02T07:40:02.617Z,991.6
2017-03-02T07:40:43.238Z,991.54
2017-03-02T07:41:23.817Z,991.53
2017-03-02T07:42:04.413Z,991.56
2017-03-02T07:42:45.019Z,991.56
2017-03-02T07:43:25.632Z,991.57
2017-03-02T07:44:06.266Z,991.58
2017-03-02T07:44:46.885Z,991.58
2017-03-02T07:45:27.494Z,991.57
2017-03-02T07:46:08.090Z,991.56
2017-03-02T07:46:48.768Z,991.57
2017-03-02T07:47:29.413Z,991.57
2017-03-02T07:48:10.052Z,991.62
2017-03-02T07:48:50.689Z,991.61
2017-03-02T07:49:31.476Z,991.65
2017-03-02T07:50:12.107Z,991.61
2017-03-02T07:50:52.707Z,991.67
2017-03-02T07:51:33.779Z,991.66
2017-03-02T07:52:14.368Z,991.68
2017-03-02T07:52:55.011Z,991.69
2017-03-02T07:53:35.597Z,991.66
2017-03-02T07:54:16.173Z,991.69
2017-03-02T07:54:56.760Z,991.7
2017-03-02T07:55:37.367Z,991.71
2017-03-02T07:56:17.958Z,991.68
2017-03-02T07:56:58.524Z,991.72
2017-03-02T07:57:39.098Z,991.67
2017-03-02T07:58:19.702Z,991.71
2017-03-02T07:59:00.287Z,991.68
2017-03-02T07:59:40.882Z,991.73
2017-03-02T08:00:21.504Z,991.67
2017-03-02T08:01:02.118Z,991.71
2017-03-02T08:01:42.716Z,991.74
2017-03-02T08:02:23.312Z,991.72
2017-03-02T08:03:03.934Z,991.74
2017-03-02T08:03:44.542Z,991.73
2017-03-02T08:04:25.117Z,991.75
2017-03-02T08:05:05.686Z,991.78
2017-03-02T08:05:46.262Z,991.79
2017-03-02T08:06:26.840Z,991.81
2017-03-02T08:07:07.444Z,991.86
2017-03-02T08:07:48.013Z,991.91
2017-03-02T08:08:28.610Z,991.89
2017-03-02T08:09:09.201Z,991.91
2017-03-02T08:09:49.770Z,991.9
2017-03-02T08:10:30.374Z,991.85
2017-03-02T08:11:11.005Z,991.87
2017-03-02T08:11:51.586Z,991.98
2017-03-02T08:12:32.171Z,991.99
2017-03-02T08:13:12.792Z,992.01
2017-03-02T08:13:53.398Z,991.99
2017-03-02T08:14:34.051Z,992.04
2017-03-02T08:15:14.622Z,992.06
2017-03-02T08:15:55.225Z,992.08
2017-03-02T08:16:35.825Z,992.15
2017-03-02T08:17:16.383Z,992.07
2017-03-02T08:17:56.990Z,992.07
2017-03-02T08:18:37.565Z,992.1
2017-03-02T08:19:18.149Z,992.1
2017-03-02T08:19:58.735Z,992.05
2017-03-02T08:20:39.325Z,992.06
2017-03-02T08:21:19.912Z,992.02
2017-03-02T08:22:00.493Z,992.07
2017-03-02T08:22:41.229Z,992.19
2017-03-02T08:23:21.837Z,992.06
2017-03-02T08:24:02.458Z,992.09
2017-03-02T08:24:43.083Z,992.06
2017-03-02T08:25:23.745Z,992.19
2017-03-02T08:26:04.325Z,992.14
2017-03-02T08:26:44.937Z,992.14
2017-03-02T08:27:25.522Z,992.13
2017-03-02T08:28:06.102Z,992.29
2017-03-02T08:28:46.745Z,992.23
2017-03-02T08:29:27.325Z,992.24
2017-03-02T08:30:07.928Z,992.24
2017-03-02T08:30:48.840Z,992.34
2017-03-02T08:31:29.437Z,992.29
2017-03-02T08:32:10.016Z,992.39